Time;durP1;ratioP1;P1;durP2;ratioP2;P2;SDS_P1;SDS_P2;PMS_P1;PMS_P2;Temp;Humidity;BMP_temperature;BMP_pressure;BME280_temperature;BME280_humidity;BME280_pressure;Samples;Min_cycle;Max_cycle;Signal;HPM_P1;HPM_P2
2023/02/02 00:01:21;;;;;;;3.47;1.65;;;;;;;;;;5031698;28;20364;-90
2023/02/02 00:03:49;;;;;;;2.80;1.55;;;;;;;;;;5029441;28;20033;-89
2023/02/02 00:06:16;;;;;;;4.00;1.73;;;;;;;;;;5033772;28;20029;-90
2023/02/02 00:08:43;;;;;;;7.47;1.77;;;;;;;;;;5028745;28;20036;-90
2023/02/02 00:11:09;;;;;;;6.30;1.73;;;;;;;;;;5034830;28;20387;-90
2023/02/02 00:13:35;;;;;;;6.63;1.85;;;;;;;;;;5032790;28;20025;-90
2023/02/02 00:16:20;;;;;;;4.82;1.80;;;;;;;;;;5027960;28;20056;-90
2023/02/02 00:18:46;;;;;;;6.03;2.20;;;;;;;;;;5031566;28;20033;-91
2023/02/02 00:21:27;;;;;;;4.82;1.90;;;;;;;;;;5032405;28;20102;-90
2023/02/02 00:23:54;;;;;;;7.07;2.70;;;;;;;;;;5031781;28;20395;-90
2023/02/02 00:26:20;;;;;;;5.65;1.98;;;;;;;;;;5031920;28;20025;-92
2023/02/02 00:28:47;;;;;;;12.82;2.28;;;;;;;;;;5029093;28;20689;-88
2023/02/02 00:31:13;;;;;;;4.30;2.40;;;;;;;;;;5033136;28;20079;-91
2023/02/02 00:33:44;;;;;;;3.90;2.03;;;;;;;;;;5036712;28;20488;-90
2023/02/02 00:36:10;;;;;;;4.85;1.67;;;;;;;;;;5031254;28;20507;-91
2023/02/02 00:38:36;;;;;;;4.50;1.77;;;;;;;;;;5040533;28;20049;-90
2023/02/02 00:41:03;;;;;;;5.70;1.58;;;;;;;;;;5031748;28;20666;-89
2023/02/02 00:43:29;;;;;;;4.50;1.65;;;;;;;;;;5038374;28;20067;-90
2023/02/02 00:45:56;;;;;;;5.05;1.77;;;;;;;;;;5035139;28;20029;-90
2023/02/02 00:48:22;;;;;;;2.78;1.50;;;;;;;;;;5030992;28;20025;-91
2023/02/02 00:50:48;;;;;;;6.20;1.60;;;;;;;;;;5034291;28;20560;-90
2023/02/02 00:53:14;;;;;;;6.68;2.28;;;;;;;;;;5033236;28;20019;-91
2023/02/02 00:55:40;;;;;;;5.97;2.47;;;;;;;;;;5033928;28;20035;-91
2023/02/02 00:58:07;;;;;;;4.95;2.20;;;;;;;;;;5035820;28;20392;-90
2023/02/02 01:00:33;;;;;;;3.80;2.30;;;;;;;;;;5041204;28;20029;-90
2023/02/02 01:03:03;;;;;;;6.60;2.00;;;;;;;;;;5033300;28;20156;-91
2023/02/02 01:05:33;;;;;;;3.65;1.98;;;;;;;;;;5032322;28;20071;-90
2023/02/02 01:07:59;;;;;;;7.25;3.22;;;;;;;;;;5040168;28;20099;-90
2023/02/02 01:10:26;;;;;;;8.18;2.30;;;;;;;;;;5038114;28;20589;-90
2023/02/02 01:12:52;;;;;;;5.25;2.63;;;;;;;;;;5035565;28;20118;-91
2023/02/02 01:15:19;;;;;;;5.80;2.13;;;;;;;;;;5035783;28;20021;-90
2023/02/02 01:17:45;;;;;;;7.05;2.33;;;;;;;;;;5039073;28;20026;-91
2023/02/02 01:20:15;;;;;;;4.65;2.03;;;;;;;;;;5031831;28;20029;-91
2023/02/02 01:22:42;;;;;;;7.63;2.20;;;;;;;;;;5039433;28;20021;-91
2023/02/02 01:25:11;;;;;;;3.60;2.15;;;;;;;;;;5032725;28;20025;-91
2023/02/02 01:27:37;;;;;;;6.75;2.08;;;;;;;;;;5039814;28;20128;-90
2023/02/02 01:30:04;;;;;;;3.90;2.00;;;;;;;;;;5037410;28;20142;-91
2023/02/02 01:32:39;;;;;;;4.68;1.67;;;;;;;;;;5031162;28;20041;-90
2023/02/02 01:35:06;;;;;;;3.33;1.60;;;;;;;;;;5036242;28;20051;-90
2023/02/02 01:37:32;;;;;;;6.75;1.98;;;;;;;;;;5035012;28;20487;-89
2023/02/02 01:39:58;;;;;;;5.45;1.50;;;;;;;;;;5029944;28;20021;-91
2023/02/02 01:42:24;;;;;;;5.90;2.38;;;;;;;;;;5028436;28;20041;-90
2023/02/02 01:45:09;;;;;;;4.55;1.50;;;;;;;;;;5035370;28;20470;-90
2023/02/02 01:47:38;;;;;;;3.97;1.45;;;;;;;;;;5034611;28;20814;-91
2023/02/02 01:50:05;;;;;;;3.30;1.60;;;;;;;;;;5028285;28;20028;-91
2023/02/02 01:52:32;;;;;;;3.13;1.50;;;;;;;;;;5033981;28;20025;-92
2023/02/02 01:55:09;;;;;;;6.15;1.90;;;;;;;;;;5033497;28;20035;-91
2023/02/02 01:57:41;;;;;;;4.18;1.60;;;;;;;;;;5039086;28;20033;-92
2023/02/02 02:00:09;;;;;;;5.97;2.30;;;;;;;;;;5032133;28;20120;-92
2023/02/02 02:02:36;;;;;;;6.10;1.60;;;;;;;;;;5030010;28;20029;-92
2023/02/02 02:05:04;;;;;;;2.97;1.40;;;;;;;;;;5034213;28;20021;-92
2023/02/02 02:07:31;;;;;;;5.68;1.50;;;;;;;;;;5027845;28;20043;-93
2023/02/02 02:09:57;;;;;;;6.50;1.80;;;;;;;;;;5035274;28;20435;-91
2023/02/02 02:12:23;;;;;;;5.00;1.80;;;;;;;;;;5030447;28;20068;-91
2023/02/02 02:17:54;;;;;;;6.45;1.40;;;;;;;;;;5025077;28;20104;-92
2023/02/02 02:26:34;;;;;;;4.47;2.15;;;;;;;;;;5032137;28;20452;-91
2023/02/02 02:29:01;;;;;;;5.65;1.83;;;;;;;;;;5032431;28;20025;-89
2023/02/02 02:31:33;;;;;;;4.18;1.48;;;;;;;;;;5033315;28;20021;-92
2023/02/02 02:34:02;;;;;;;3.53;1.58;;;;;;;;;;5035934;28;20521;-91
2023/02/02 02:36:32;;;;;;;3.63;1.48;;;;;;;;;;5028822;28;20021;-92
2023/02/02 02:39:18;;;;;;;7.90;2.08;;;;;;;;;;5032813;28;20314;-92
2023/02/02 02:41:48;;;;;;;4.40;1.50;;;;;;;;;;5030212;28;20017;-92
2023/02/02 02:44:16;;;;;;;7.40;1.90;;;;;;;;;;5032208;28;20021;-91
2023/02/02 02:46:43;;;;;;;5.68;1.90;;;;;;;;;;5035966;28;20084;-90
2023/02/02 02:49:10;;;;;;;6.85;2.05;;;;;;;;;;5032013;28;20078;-92
2023/02/02 02:51:45;;;;;;;3.47;1.38;;;;;;;;;;5031992;28;20029;-91
2023/02/02 02:54:15;;;;;;;3.38;1.70;;;;;;;;;;5025099;28;20079;-91
2023/02/02 02:56:55;;;;;;;4.40;1.42;;;;;;;;;;5034618;28;20090;-91
2023/02/02 02:59:44;;;;;;;5.75;1.80;;;;;;;;;;5036140;28;20353;-91
2023/02/02 03:02:15;;;;;;;5.28;1.60;;;;;;;;;;5017352;28;20060;-91
2023/02/02 03:05:00;;;;;;;3.92;1.67;;;;;;;;;;5029020;28;20025;-92
2023/02/02 03:07:29;;;;;;;3.40;1.75;;;;;;;;;;5032963;28;20041;-91
2023/02/02 03:09:56;;;;;;;5.90;1.40;;;;;;;;;;5031525;28;20059;-91
2023/02/02 03:12:23;;;;;;;3.65;1.52;;;;;;;;;;5032373;28;20941;-92
2023/02/02 03:14:49;;;;;;;8.18;2.55;;;;;;;;;;5026479;28;20112;-91
2023/02/02 03:17:15;;;;;;;5.80;2.30;;;;;;;;;;5029445;28;20116;-92
2023/02/02 03:19:41;;;;;;;5.75;1.90;;;;;;;;;;5031011;28;20147;-91
2023/02/02 03:22:07;;;;;;;10.65;1.95;;;;;;;;;;5039681;28;20503;-91
2023/02/02 03:24:34;;;;;;;6.43;1.92;;;;;;;;;;5038604;28;20025;-91
2023/02/02 03:27:00;;;;;;;3.53;1.73;;;;;;;;;;5038355;28;20029;-91
2023/02/02 03:29:27;;;;;;;5.93;1.95;;;;;;;;;;5037754;28;20045;-91
2023/02/02 03:31:53;;;;;;;4.35;1.63;;;;;;;;;;5039830;28;20053;-91
2023/02/02 03:34:19;;;;;;;5.78;1.45;;;;;;;;;;5035836;28;20511;-90
2023/02/02 03:36:45;;;;;;;6.25;1.98;;;;;;;;;;5040529;28;20352;-91
2023/02/02 03:39:12;;;;;;;2.80;1.58;;;;;;;;;;5037882;28;20152;-92
2023/02/02 03:41:38;;;;;;;5.78;1.75;;;;;;;;;;5030852;28;20128;-92
2023/02/02 03:44:04;;;;;;;7.38;1.50;;;;;;;;;;5034703;28;20021;-91
2023/02/02 03:46:30;;;;;;;8.85;2.20;;;;;;;;;;5035552;28;20033;-91
2023/02/02 03:48:57;;;;;;;3.67;1.45;;;;;;;;;;5037603;28;20111;-92
2023/02/02 03:51:23;;;;;;;3.72;1.60;;;;;;;;;;5036235;28;20029;-91
2023/02/02 03:53:49;;;;;;;3.00;1.63;;;;;;;;;;5034926;28;20052;-91
2023/02/02 03:56:18;;;;;;;6.55;2.65;;;;;;;;;;5032812;28;20021;-92
2023/02/02 03:58:45;;;;;;;5.32;1.73;;;;;;;;;;5034210;28;20511;-92
2023/02/02 04:01:12;;;;;;;4.80;1.70;;;;;;;;;;5036200;28;20078;-91
2023/02/02 04:03:38;;;;;;;5.55;2.35;;;;;;;;;;5040416;28;20029;-92
2023/02/02 04:06:05;;;;;;;5.72;1.77;;;;;;;;;;5041948;28;20021;-92
2023/02/02 04:08:32;;;;;;;5.45;1.95;;;;;;;;;;5033045;28;20066;-92
2023/02/02 04:10:58;;;;;;;4.95;1.70;;;;;;;;;;5048730;28;20028;-92
2023/02/02 04:13:25;;;;;;;6.25;2.28;;;;;;;;;;5035196;28;20034;-92
2023/02/02 04:15:58;;;;;;;7.00;1.83;;;;;;;;;;5039542;28;20414;-92
2023/02/02 04:18:24;;;;;;;3.50;1.58;;;;;;;;;;5043330;28;20507;-91
2023/02/02 04:20:55;;;;;;;10.50;2.28;;;;;;;;;;5038026;28;20025;-92
2023/02/02 04:23:21;;;;;;;6.88;2.10;;;;;;;;;;5043878;28;20018;-91
2023/02/02 04:25:51;;;;;;;7.05;1.75;;;;;;;;;;5043965;28;20526;-92
2023/02/02 04:28:17;;;;;;;3.45;1.83;;;;;;;;;;5041998;28;20037;-91
2023/02/02 04:30:43;;;;;;;7.43;1.90;;;;;;;;;;5035147;28;20091;-91
2023/02/02 04:33:09;;;;;;;3.60;1.98;;;;;;;;;;5048707;28;20060;-92
2023/02/02 04:35:36;;;;;;;6.57;1.80;;;;;;;;;;5040318;28;20468;-89
2023/02/02 04:38:02;;;;;;;6.95;2.03;;;;;;;;;;5039326;28;20029;-90
2023/02/02 04:40:28;;;;;;;6.30;1.92;;;;;;;;;;5032427;28;20034;-91
2023/02/02 04:42:54;;;;;;;9.52;2.47;;;;;;;;;;5035385;28;20021;-92
2023/02/02 04:45:20;;;;;;;4.68;1.85;;;;;;;;;;5034703;28;20032;-92
2023/02/02 04:47:47;;;;;;;4.45;1.90;;;;;;;;;;5034251;28;20041;-91
2023/02/02 04:50:13;;;;;;;5.63;2.00;;;;;;;;;;5035574;28;20028;-92
2023/02/02 04:52:39;;;;;;;8.88;2.45;;;;;;;;;;5033336;28;20068;-92
2023/02/02 04:55:06;;;;;;;8.02;2.67;;;;;;;;;;5034241;28;20067;-92
2023/02/02 04:57:32;;;;;;;8.60;3.70;;;;;;;;;;5035590;28;20028;-91
2023/02/02 04:59:58;;;;;;;7.35;1.80;;;;;;;;;;5035378;28;20022;-92
2023/02/02 05:02:24;;;;;;;6.70;2.03;;;;;;;;;;5036644;28;20120;-91
2023/02/02 05:04:50;;;;;;;7.72;2.17;;;;;;;;;;5041105;28;20419;-91
2023/02/02 05:07:17;;;;;;;8.73;2.45;;;;;;;;;;5034402;28;20044;-92
2023/02/02 05:09:43;;;;;;;4.90;1.90;;;;;;;;;;5036489;28;20032;-90
2023/02/02 05:12:09;;;;;;;3.97;2.10;;;;;;;;;;5034636;28;20017;-92
2023/02/02 05:14:35;;;;;;;5.07;1.90;;;;;;;;;;5028644;28;20068;-90
2023/02/02 05:17:02;;;;;;;4.97;2.00;;;;;;;;;;5036846;28;20547;-91
2023/02/02 05:19:28;;;;;;;4.93;1.85;;;;;;;;;;5040562;28;20449;-91
2023/02/02 05:21:54;;;;;;;3.42;1.70;;;;;;;;;;5030950;28;20508;-90
2023/02/02 05:24:20;;;;;;;7.28;2.10;;;;;;;;;;5041912;28;20062;-91
2023/02/02 05:26:47;;;;;;;5.88;2.20;;;;;;;;;;5034023;28;20156;-90
2023/02/02 05:29:13;;;;;;;7.65;2.40;;;;;;;;;;5038443;28;20112;-92
2023/02/02 05:31:39;;;;;;;4.68;2.20;;;;;;;;;;5038354;28;20092;-91
2023/02/02 05:34:05;;;;;;;4.40;2.58;;;;;;;;;;5034557;28;20131;-91
2023/02/02 05:36:32;;;;;;;8.32;3.53;;;;;;;;;;5038072;28;20029;-91
2023/02/02 05:38:59;;;;;;;4.72;2.10;;;;;;;;;;5031993;28;20025;-92
2023/02/02 05:41:25;;;;;;;5.30;1.90;;;;;;;;;;5036018;28;20451;-91
2023/02/02 05:43:51;;;;;;;5.28;2.00;;;;;;;;;;5035803;28;20032;-89
2023/02/02 05:46:17;;;;;;;3.80;2.10;;;;;;;;;;5033506;28;20114;-89
2023/02/02 05:48:44;;;;;;;6.10;1.80;;;;;;;;;;5037507;28;20032;-92
2023/02/02 05:51:30;;;;;;;5.45;2.20;;;;;;;;;;5034816;28;20025;-91
2023/02/02 05:53:56;;;;;;;5.13;1.92;;;;;;;;;;5030853;28;20014;-91
2023/02/02 05:56:22;;;;;;;5.40;2.10;;;;;;;;;;5040189;28;20059;-90
2023/02/02 05:58:49;;;;;;;3.33;1.90;;;;;;;;;;5035907;28;20117;-91
2023/02/02 06:01:16;;;;;;;6.18;2.70;;;;;;;;;;5043504;28;20111;-90
2023/02/02 06:03:42;;;;;;;6.32;2.58;;;;;;;;;;5037575;28;20028;-91
2023/02/02 06:06:09;;;;;;;8.50;2.55;;;;;;;;;;5034099;28;20036;-91
2023/02/02 06:08:35;;;;;;;4.43;2.00;;;;;;;;;;5035896;28;20032;-90
2023/02/02 06:11:12;;;;;;;9.48;2.20;;;;;;;;;;5035829;28;20075;-91
2023/02/02 06:13:38;;;;;;;6.40;2.20;;;;;;;;;;5040341;28;20028;-91
2023/02/02 06:16:04;;;;;;;11.38;2.60;;;;;;;;;;5034768;28;20476;-91
2023/02/02 06:18:31;;;;;;;5.07;2.38;;;;;;;;;;5032915;28;20029;-90
2023/02/02 06:20:58;;;;;;;7.70;2.33;;;;;;;;;;5030956;28;20014;-90
2023/02/02 06:23:24;;;;;;;4.78;2.05;;;;;;;;;;5035646;28;20056;-90
2023/02/02 06:25:50;;;;;;;4.03;2.05;;;;;;;;;;5034262;28;20083;-91
2023/02/02 06:28:16;;;;;;;5.30;2.03;;;;;;;;;;5032381;28;20684;-90
2023/02/02 06:30:43;;;;;;;3.30;1.65;;;;;;;;;;5033387;28;20468;-90
2023/02/02 06:33:09;;;;;;;5.15;2.03;;;;;;;;;;5028430;28;20903;-89
2023/02/02 06:35:35;;;;;;;5.13;2.20;;;;;;;;;;5033640;28;20395;-90
2023/02/02 06:38:01;;;;;;;3.72;1.73;;;;;;;;;;5034953;28;20060;-90
2023/02/02 06:40:28;;;;;;;6.15;2.00;;;;;;;;;;5036724;28;20059;-90
2023/02/02 06:42:58;;;;;;;7.13;2.20;;;;;;;;;;5031237;28;20586;-90
2023/02/02 06:45:25;;;;;;;4.85;2.38;;;;;;;;;;5032621;28;20064;-90
2023/02/02 06:47:52;;;;;;;3.92;1.95;;;;;;;;;;5035022;28;20033;-90
2023/02/02 06:50:18;;;;;;;5.20;1.83;;;;;;;;;;5036049;28;20640;-91
2023/02/02 06:52:48;;;;;;;3.85;1.90;;;;;;;;;;5026193;28;20102;-90
2023/02/02 06:55:14;;;;;;;4.95;1.80;;;;;;;;;;5034665;28;20020;-89
2023/02/02 06:57:40;;;;;;;8.93;3.67;;;;;;;;;;5025487;28;20095;-89
2023/02/02 07:00:07;;;;;;;9.38;4.15;;;;;;;;;;5032405;28;20037;-90
2023/02/02 07:02:34;;;;;;;7.53;4.68;;;;;;;;;;5029730;28;20183;-90
2023/02/02 07:05:00;;;;;;;9.82;5.60;;;;;;;;;;5031272;28;20166;-90
2023/02/02 07:07:27;;;;;;;9.63;3.67;;;;;;;;;;5038797;28;20029;-90
2023/02/02 07:09:53;;;;;;;5.90;3.17;;;;;;;;;;5028252;28;20096;-90
2023/02/02 07:12:19;;;;;;;9.52;2.78;;;;;;;;;;5037215;28;20029;-90
2023/02/02 07:14:45;;;;;;;4.63;2.20;;;;;;;;;;5034782;28;20021;-92
2023/02/02 07:17:12;;;;;;;8.98;2.30;;;;;;;;;;5040488;28;20025;-89
2023/02/02 07:19:38;;;;;;;3.67;1.85;;;;;;;;;;5037274;28;20028;-89
2023/02/02 07:22:04;;;;;;;9.57;2.08;;;;;;;;;;5036245;28;20025;-89
2023/02/02 07:24:31;;;;;;;4.55;1.80;;;;;;;;;;5033695;28;20067;-88
2023/02/02 07:26:57;;;;;;;6.18;1.80;;;;;;;;;;5036800;28;20033;-88
2023/02/02 07:29:24;;;;;;;4.75;2.67;;;;;;;;;;5040197;28;20025;-89
2023/02/02 07:31:50;;;;;;;7.95;2.47;;;;;;;;;;5029662;28;20510;-89
2023/02/02 07:34:16;;;;;;;5.07;2.35;;;;;;;;;;5034827;28;20028;-90
2023/02/02 07:36:42;;;;;;;7.22;2.33;;;;;;;;;;5040312;28;20029;-89
2023/02/02 07:39:09;;;;;;;7.63;2.35;;;;;;;;;;5033713;28;20029;-90
2023/02/02 07:41:35;;;;;;;14.95;3.40;;;;;;;;;;5034259;28;20029;-89
2023/02/02 07:44:02;;;;;;;4.68;2.00;;;;;;;;;;5037895;28;20030;-89
2023/02/02 07:46:29;;;;;;;11.73;3.38;;;;;;;;;;5040647;28;20048;-89
2023/02/02 07:48:58;;;;;;;13.60;3.38;;;;;;;;;;5042240;28;20116;-90
2023/02/02 07:51:25;;;;;;;6.63;2.58;;;;;;;;;;5033970;28;20087;-90
2023/02/02 07:53:57;;;;;;;6.97;2.55;;;;;;;;;;5033893;28;20021;-90
2023/02/02 07:56:23;;;;;;;;;;;;;;;;;;5041854;28;20152;-89
2023/02/02 07:58:51;;;;;;;3.47;2.00;;;;;;;;;;5035209;28;19905;-90
2023/02/02 08:01:19;;;;;;;4.88;2.03;;;;;;;;;;5031548;28;20025;-90
2023/02/02 08:03:45;;;;;;;7.22;2.08;;;;;;;;;;5030133;28;20025;-90
2023/02/02 08:06:14;;;;;;;9.32;2.50;;;;;;;;;;5030957;28;20037;-90
2023/02/02 08:08:40;;;;;;;11.50;3.60;;;;;;;;;;5028703;28;20030;-90
2023/02/02 08:11:08;;;;;;;7.15;2.03;;;;;;;;;;5032894;28;20495;-89
2023/02/02 08:13:35;;;;;;;7.63;2.47;;;;;;;;;;5042917;28;20031;-90
2023/02/02 08:16:01;;;;;;;5.00;1.95;;;;;;;;;;5042463;28;20028;-89
2023/02/02 08:18:27;;;;;;;10.35;2.53;;;;;;;;;;5036272;28;20025;-90
2023/02/02 08:20:53;;;;;;;5.68;2.13;;;;;;;;;;5039656;28;20021;-90
2023/02/02 08:23:22;;;;;;;5.20;2.20;;;;;;;;;;5033250;28;20031;-90
2023/02/02 08:25:52;;;;;;;6.03;2.85;;;;;;;;;;5038584;28;20475;-89
2023/02/02 08:28:18;;;;;;;5.35;2.10;;;;;;;;;;5032042;28;21302;-89
2023/02/02 08:30:45;;;;;;;8.50;2.50;;;;;;;;;;5029787;28;20014;-90
2023/02/02 08:33:11;;;;;;;8.23;2.80;;;;;;;;;;5034549;28;20049;-90
2023/02/02 08:35:41;;;;;;;10.48;2.15;;;;;;;;;;5032763;28;20017;-89
2023/02/02 08:38:07;;;;;;;7.47;2.40;;;;;;;;;;5030766;28;20021;-90
2023/02/02 08:40:33;;;;;;;6.03;2.60;;;;;;;;;;5036838;28;20048;-88
2023/02/02 08:42:59;;;;;;;6.50;2.42;;;;;;;;;;5028941;28;20021;-89
2023/02/02 08:45:26;;;;;;;10.35;2.33;;;;;;;;;;5036571;28;20411;-90
2023/02/02 08:47:53;;;;;;;10.55;2.58;;;;;;;;;;5033482;28;20488;-89
2023/02/02 08:50:19;;;;;;;9.00;2.80;;;;;;;;;;5043863;28;20075;-91
2023/02/02 08:52:45;;;;;;;6.95;2.30;;;;;;;;;;5041741;28;20028;-90
2023/02/02 08:55:13;;;;;;;8.52;3.20;;;;;;;;;;5038284;28;20025;-90
2023/02/02 08:57:39;;;;;;;6.57;2.33;;;;;;;;;;5040239;28;20026;-90
2023/02/02 09:00:06;;;;;;;12.63;2.85;;;;;;;;;;5034251;28;20060;-89
2023/02/02 09:02:32;;;;;;;7.93;2.17;;;;;;;;;;5033559;28;20080;-91
2023/02/02 09:04:58;;;;;;;11.32;2.38;;;;;;;;;;5041832;28;20128;-89
2023/02/02 09:07:25;;;;;;;7.75;2.10;;;;;;;;;;5034561;28;20120;-89
2023/02/02 09:09:54;;;;;;;5.13;1.90;;;;;;;;;;5032610;28;20041;-89
2023/02/02 09:12:20;;;;;;;5.18;2.10;;;;;;;;;;5038170;28;20056;-90
2023/02/02 09:14:47;;;;;;;7.32;2.78;;;;;;;;;;5043638;28;20407;-90
2023/02/02 09:17:13;;;;;;;8.15;2.60;;;;;;;;;;5036754;28;20403;-89
2023/02/02 09:19:39;;;;;;;11.32;2.17;;;;;;;;;;5035635;28;20025;-89
2023/02/02 09:22:05;;;;;;;10.13;2.63;;;;;;;;;;5044603;28;20033;-89
2023/02/02 09:24:32;;;;;;;5.95;2.70;;;;;;;;;;5038843;28;20079;-90
2023/02/02 09:26:58;;;;;;;8.55;2.55;;;;;;;;;;5039020;28;20034;-90
2023/02/02 09:29:24;;;;;;;8.68;2.10;;;;;;;;;;5033908;28;20021;-89
2023/02/02 09:31:50;;;;;;;9.07;2.28;;;;;;;;;;5034985;28;20041;-89
2023/02/02 09:34:16;;;;;;;9.25;2.25;;;;;;;;;;5035045;28;20017;-89
2023/02/02 09:36:43;;;;;;;5.32;2.35;;;;;;;;;;5043279;28;20021;-89
2023/02/02 09:39:11;;;;;;;6.45;1.67;;;;;;;;;;5034097;28;20602;-89
2023/02/02 09:41:38;;;;;;;4.20;1.83;;;;;;;;;;5034720;28;20449;-88
2023/02/02 09:44:10;;;;;;;9.52;2.20;;;;;;;;;;5037574;28;20033;-90
2023/02/02 09:46:39;;;;;;;5.38;1.67;;;;;;;;;;5036888;28;20041;-88
2023/02/02 09:49:08;;;;;;;9.40;2.20;;;;;;;;;;5038355;28;20106;-89
2023/02/02 09:51:37;;;;;;;10.35;1.65;;;;;;;;;;5042475;28;20433;-88
2023/02/02 09:54:21;;;;;;;10.98;2.33;;;;;;;;;;5039619;28;20425;-89
2023/02/02 09:56:54;;;;;;;6.00;1.85;;;;;;;;;;5031789;28;20491;-90
2023/02/02 09:59:22;;;;;;;5.97;1.70;;;;;;;;;;5033225;28;20026;-90
2023/02/02 10:01:52;;;;;;;6.88;2.33;;;;;;;;;;5037612;28;20114;-90
2023/02/02 10:04:18;;;;;;;5.35;2.65;;;;;;;;;;5035051;28;20033;-90
2023/02/02 10:06:46;;;;;;;7.43;2.30;;;;;;;;;;5034376;28;20028;-90
2023/02/02 10:09:31;;;;;;;4.47;2.33;;;;;;;;;;5028963;28;20140;-90
2023/02/02 10:11:57;;;;;;;4.50;2.13;;;;;;;;;;5037146;28;20024;-89
2023/02/02 10:14:27;;;;;;;11.13;2.00;;;;;;;;;;5034127;28;20538;-87
2023/02/02 10:16:54;;;;;;;5.90;1.75;;;;;;;;;;5036246;28;20654;-87
2023/02/02 10:19:24;;;;;;;3.63;1.67;;;;;;;;;;5029438;28;20063;-87
2023/02/02 10:21:59;;;;;;;6.82;1.85;;;;;;;;;;5029842;28;20036;-86
2023/02/02 10:24:28;;;;;;;8.88;2.53;;;;;;;;;;5034321;28;20187;-88
2023/02/02 10:26:56;;;;;;;8.23;1.90;;;;;;;;;;5034628;28;20124;-88
2023/02/02 10:29:25;;;;;;;8.30;1.73;;;;;;;;;;5034599;28;20545;-89
2023/02/02 10:31:57;;;;;;;5.80;1.88;;;;;;;;;;5037160;28;20052;-89
2023/02/02 10:34:26;;;;;;;8.25;2.10;;;;;;;;;;5033926;28;20542;-90
2023/02/02 10:36:56;;;;;;;8.13;2.20;;;;;;;;;;5035684;28;20017;-90
2023/02/02 10:39:22;;;;;;;4.63;1.75;;;;;;;;;;5032720;28;20030;-89
2023/02/02 10:41:54;;;;;;;3.60;1.80;;;;;;;;;;5035444;28;20527;-89
2023/02/02 10:44:23;;;;;;;5.82;2.00;;;;;;;;;;5029841;28;20114;-89
2023/02/02 10:46:52;;;;;;;3.88;1.70;;;;;;;;;;5036037;28;20518;-89
2023/02/02 10:49:22;;;;;;;6.60;1.90;;;;;;;;;;5031240;28;20022;-89
2023/02/02 10:51:57;;;;;;;5.53;1.77;;;;;;;;;;5034679;28;20078;-89
2023/02/02 10:54:37;;;;;;;4.38;1.60;;;;;;;;;;5033820;28;20029;-90
2023/02/02 10:57:04;;;;;;;9.20;2.03;;;;;;;;;;5040094;28;20044;-90
2023/02/02 10:59:37;;;;;;;9.75;1.80;;;;;;;;;;5032699;28;20005;-89
2023/02/02 11:02:09;;;;;;;4.72;1.70;;;;;;;;;;5037004;28;20041;-91
2023/02/02 11:07:20;;;;;;;6.50;1.77;;;;;;;;;;5027862;28;20091;-90
2023/02/02 11:09:46;;;;;;;6.90;2.25;;;;;;;;;;5034700;28;20018;-90
2023/02/02 11:12:22;;;;;;;11.38;2.50;;;;;;;;;;5031679;28;20024;-90
2023/02/02 11:14:57;;;;;;;6.35;2.03;;;;;;;;;;5037219;28;20026;-90
2023/02/02 11:17:24;;;;;;;8.75;3.13;;;;;;;;;;5029545;28;20125;-90
2023/02/02 11:19:51;;;;;;;6.28;2.78;;;;;;;;;;5036026;28;20052;-91
2023/02/02 11:22:24;;;;;;;7.18;2.60;;;;;;;;;;5038885;28;20030;-90
2023/02/02 11:24:52;;;;;;;5.05;3.00;;;;;;;;;;5037720;28;20025;-90
2023/02/02 11:27:49;;;;;;;6.78;2.67;;;;;;;;;;5035877;28;20044;-91
2023/02/02 11:30:34;;;;;;;7.10;3.05;;;;;;;;;;5051078;22;20025;-74
2023/02/02 11:33:18;;;;;;;6.18;2.58;;;;;;;;;;4975031;28;20117;-75
2023/02/02 11:35:52;;;;;;;5.82;2.67;;;;;;;;;;4976555;28;20164;-74
2023/02/02 11:38:20;;;;;;;6.65;2.50;;;;;;;;;;4978495;28;20029;-75
2023/02/02 11:40:53;;;;;;;8.05;2.47;;;;;;;;;;4976631;28;20026;-75
2023/02/02 11:43:22;;;;;;;5.03;1.83;;;;;;;;;;4981998;28;20141;-74
2023/02/02 11:45:53;;;;;;;5.20;1.88;;;;;;;;;;4982942;28;20072;-74
2023/02/02 11:48:21;;;;;;;6.10;1.80;;;;;;;;;;4980744;28;20479;-79
2023/02/02 11:50:49;;;;;;;3.15;1.15;;;;;;;;;;4976454;28;20098;-75
2023/02/02 11:53:23;;;;;;;9.40;2.13;;;;;;;;;;4991905;28;20053;-75
2023/02/02 11:55:51;;;;;;;4.13;1.58;;;;;;;;;;4977002;28;20038;-75
2023/02/02 11:58:26;;;;;;;4.63;1.48;;;;;;;;;;4977019;28;20019;-74
2023/02/02 12:00:53;;;;;;;6.47;1.88;;;;;;;;;;4979694;28;20018;-74
2023/02/02 12:03:45;;;;;;;2.85;1.50;;;;;;;;;;4981425;28;20598;-75
2023/02/02 12:06:22;;;;;;;5.57;1.60;;;;;;;;;;4974994;28;20173;-75
2023/02/02 12:08:49;;;;;;;6.95;1.63;;;;;;;;;;4981092;28;20558;-75
2023/02/02 12:11:35;;;;;;;5.07;2.20;;;;;;;;;;4973787;28;20034;-75
2023/02/02 12:14:11;;;;;;;5.78;1.92;;;;;;;;;;4979864;28;20061;-74
2023/02/02 12:16:56;;;;;;;6.97;2.38;;;;;;;;;;4975979;28;20022;-74
2023/02/02 12:19:40;;;;;;;8.70;2.40;;;;;;;;;;4975802;28;20021;-74
2023/02/02 12:22:12;;;;;;;4.43;1.65;;;;;;;;;;4980215;28;20034;-75
2023/02/02 12:24:45;;;;;;;6.57;2.95;;;;;;;;;;4981564;28;20029;-75
2023/02/02 12:27:30;;;;;;;5.18;1.77;;;;;;;;;;4976146;28;20217;-75
2023/02/02 12:30:09;;;;;;;4.75;1.65;;;;;;;;;;4979775;28;20088;-75
2023/02/02 12:32:40;;;;;;;7.97;1.90;;;;;;;;;;4978479;28;20077;-74
2023/02/02 12:35:22;;;;;;;7.15;2.20;;;;;;;;;;4974324;28;20027;-75
2023/02/02 12:37:54;;;;;;;13.35;2.17;;;;;;;;;;4977986;28;20026;-75
2023/02/02 12:40:36;;;;;;;7.53;2.20;;;;;;;;;;4979820;28;20122;-77
2023/02/02 12:43:08;;;;;;;8.98;2.40;;;;;;;;;;4980655;28;20042;-74
2023/02/02 12:45:35;;;;;;;;;;;;;;;;;;4982623;28;20088;-75
2023/02/02 12:48:07;;;;;;;6.30;1.95;;;;;;;;;;4978707;28;19921;-74
2023/02/02 12:50:33;;;;;;;6.55;2.08;;;;;;;;;;4978050;28;20069;-75
2023/02/02 12:53:06;;;;;;;4.13;2.30;;;;;;;;;;4980973;28;20054;-74
2023/02/02 12:55:43;;;;;;;7.88;2.40;;;;;;;;;;4982358;28;20355;-75
2023/02/02 12:58:12;;;;;;;4.97;2.38;;;;;;;;;;4976499;28;20053;-75
2023/02/02 13:00:49;;;;;;;5.47;1.85;;;;;;;;;;4981785;28;20026;-74
2023/02/02 13:03:21;;;;;;;5.40;2.72;;;;;;;;;;4972699;28;20457;-74
2023/02/02 13:05:47;;;;;;;;;;;;;;;;;;4979731;28;20309;-75
2023/02/02 13:08:19;;;;;;;5.45;1.92;;;;;;;;;;4979907;28;20614;-74
2023/02/02 13:10:47;;;;;;;6.32;1.98;;;;;;;;;;4978843;28;20026;-76
2023/02/02 13:13:18;;;;;;;7.50;2.10;;;;;;;;;;4981201;28;20104;-75
2023/02/02 13:16:10;;;;;;;5.60;2.10;;;;;;;;;;4980093;28;20536;-75
2023/02/02 13:18:37;;;;;;;;;;;;;;;;;;4977398;28;20109;-75
2023/02/02 13:21:15;;;;;;;7.70;2.05;;;;;;;;;;4979534;28;19910;-74
2023/02/02 13:23:52;;;;;;;10.15;1.88;;;;;;;;;;4978267;28;20076;-75
2023/02/02 13:26:24;;;;;;;5.18;2.13;;;;;;;;;;4973149;28;20069;-75
2023/02/02 13:29:10;;;;;;;4.22;2.30;;;;;;;;;;4977964;28;20030;-74
2023/02/02 13:31:40;;;;;;;5.35;2.40;;;;;;;;;;4958687;28;20050;-75
2023/02/02 13:34:12;;;;;;;8.73;2.03;;;;;;;;;;4976339;28;20036;-75
2023/02/02 13:36:42;;;;;;;5.05;2.03;;;;;;;;;;4977016;28;20030;-75
2023/02/02 13:39:17;;;;;;;5.75;1.70;;;;;;;;;;4978360;28;20739;-75
2023/02/02 13:41:44;;;;;;;6.65;2.45;;;;;;;;;;4971798;28;20037;-75
2023/02/02 13:44:13;;;;;;;2.85;1.73;;;;;;;;;;4969853;28;20058;-74
2023/02/02 13:46:40;;;;;;;5.13;2.00;;;;;;;;;;4981469;28;20087;-76
2023/02/02 13:49:14;;;;;;;6.28;2.55;;;;;;;;;;4969270;28;20395;-75
2023/02/02 13:51:41;;;;;;;7.28;3.03;;;;;;;;;;4975319;28;20030;-75
2023/02/02 13:54:07;;;;;;;9.77;2.90;;;;;;;;;;4989966;28;20386;-75
2023/02/02 13:56:49;;;;;;;7.90;3.80;;;;;;;;;;4975933;28;20050;-76
2023/02/02 13:59:33;;;;;;;4.80;2.67;;;;;;;;;;4973850;28;20038;-75
2023/02/02 14:02:00;;;;;;;5.72;2.47;;;;;;;;;;4970370;28;20057;-76
2023/02/02 14:04:27;;;;;;;8.50;3.00;;;;;;;;;;4974205;28;20577;-75
2023/02/02 14:06:56;;;;;;;5.25;2.45;;;;;;;;;;4972124;28;20030;-75
2023/02/02 14:09:24;;;;;;;5.75;3.38;;;;;;;;;;4974687;28;20030;-75
2023/02/02 14:11:59;;;;;;;6.20;2.92;;;;;;;;;;4973171;28;20026;-75
2023/02/02 14:14:31;;;;;;;14.45;3.35;;;;;;;;;;4970166;28;20109;-74
2023/02/02 14:17:07;;;;;;;8.18;2.33;;;;;;;;;;4975818;28;20042;-75
2023/02/02 14:19:34;;;;;;;6.57;2.28;;;;;;;;;;4969326;28;20093;-75
2023/02/02 14:22:01;;;;;;;8.65;2.33;;;;;;;;;;4971959;28;20459;-75
2023/02/02 14:24:28;;;;;;;7.70;2.20;;;;;;;;;;4974598;28;20037;-75
2023/02/02 14:26:58;;;;;;;8.18;2.58;;;;;;;;;;4988525;28;20112;-75
2023/02/02 14:29:30;;;;;;;6.15;1.85;;;;;;;;;;4978839;28;20075;-75
2023/02/02 14:31:58;;;;;;;3.75;1.70;;;;;;;;;;4977918;28;20043;-75
2023/02/02 14:34:32;;;;;;;6.40;1.95;;;;;;;;;;4975455;28;20126;-75
2023/02/02 14:37:19;;;;;;;7.00;2.38;;;;;;;;;;4986556;28;20030;-75
2023/02/02 14:39:52;;;;;;;9.20;1.98;;;;;;;;;;4974157;28;20521;-74
2023/02/02 14:45:12;;;;;;;5.88;1.90;;;;;;;;;;4972765;28;20093;-75
2023/02/02 14:47:41;;;;;;;7.95;1.88;;;;;;;;;;4975696;28;20038;-75
2023/02/02 14:50:26;;;;;;;10.68;3.28;;;;;;;;;;4974052;28;20026;-75
2023/02/02 14:53:01;;;;;;;6.00;1.70;;;;;;;;;;4976907;28;20033;-75
2023/02/02 14:55:28;;;;;;;5.03;1.92;;;;;;;;;;4979766;28;20192;-75
2023/02/02 14:57:59;;;;;;;9.10;2.03;;;;;;;;;;4975694;28;20026;-75
2023/02/02 15:00:31;;;;;;;11.23;2.20;;;;;;;;;;4971279;28;20101;-74
2023/02/02 15:03:17;;;;;;;5.55;1.60;;;;;;;;;;4978360;28;20141;-76
2023/02/02 15:05:45;;;;;;;6.68;1.60;;;;;;;;;;4988976;28;20442;-75
2023/02/02 15:08:20;;;;;;;7.03;2.25;;;;;;;;;;4972090;28;20042;-75
2023/02/02 15:10:52;;;;;;;8.38;1.95;;;;;;;;;;4972507;28;20027;-75